Briefing drone pour Pleaux

Rechercher une autre localisation

Conditions de vol :


Nous sommes le : Mardi 27 septembre 2022
Il est 20:24 UTC (22:24 LT)

Lever de soleil : 05:17 UTC (07:17 LT)
Coucher de soleil : 18:06 UTC (20:06 LT)

Météo

L'essentiel des conditions de vol

VIGILANCE MÉTÉO FRANCE - Cantal (15)
Pas de vigilances particulieres
METAR de LFLW
LFLW 272000Z AUTO 28005KT 230V320 5000 -RA BR OVC004 10/10 Q1012

Date d'émission: 27/09/2022
Heure d'émission: 20:00 UTC
Vent: 280° (variable du 230° au 320°) pour 5 KT (9 km/h)
Visibilité horizontale: 5000 m
Plafond :
- Couvert à 400ft (122m)
Température: 10 °C
Point de rosée: 10 °C
Humidité: 100%
Pression (QNH): 1012 hPa
Conditions: Faible pluie
Prévision 24h pour Aurillac (18 km)
Vent : 271° pour 4 KT (15 km/h)
Temperature Maxi: 12 °C
Temperature Min: 12 °C
Humidité : 97%
Condition : Légère pluie



Warning: count(): Parameter must be an array or an object that implements Countable in /homepages/6/d509196549/htdocs/droneoxygene/briefing.php on line 743
WEBCAM POUR PLEAUX

Réglementation

Voler en sécurité

CARTES AERONAUTIQUE 1/500.000
CARTE AZBA (Reseau basse altitude)
CARTES VAC (LFLW)
SUP AIP




Chargement des AIP...
NOTAM (PLEAUX + Terrain à proximité / FIR )




Chargement des NOTAMS...
CONTACT PREFECTURE 15


Avertissement : Les données mises à disposition sont indicatives. Oxygène Drone ne pourra être tenu responsable de dégâts causés aux biens et aux personnes.